Time;durP1;ratioP1;P1;durP2;ratioP2;P2;SDS_P1;SDS_P2;PMS_P1;PMS_P2;Temp;Humidity;BMP_temperature;BMP_pressure;BME280_temperature;BME280_humidity;BME280_pressure;Samples;Min_cycle;Max_cycle;Signal;HPM_P1;HPM_P2
2024/01/12 00:01:37;;;;;;;70.03;33.58;;;1.00;99.90;;;1.17;79.08;102268.75;5032219;28;19971;-89
2024/01/12 00:04:05;;;;;;;70.60;33.97;;;1.00;99.90;;;1.17;78.77;102272.25;5032049;28;20045;-89
2024/01/12 00:06:32;;;;;;;68.38;32.42;;;1.00;99.90;;;1.19;78.92;102266.88;5015977;28;20148;-88
2024/01/12 00:09:04;;;;;;;71.35;32.20;;;1.00;99.90;;;1.21;78.72;102265.81;5015797;28;20049;-89
2024/01/12 00:11:35;;;;;;;72.25;33.88;;;1.00;99.90;;;1.21;78.54;102267.59;5015955;28;20045;-89
2024/01/12 00:14:03;;;;;;;80.50;35.08;;;1.10;99.90;;;1.23;78.53;102276.22;5033647;28;20049;-89
2024/01/12 00:16:33;;;;;;;74.00;34.38;;;1.00;99.90;;;1.23;78.79;102274.44;5032147;28;20037;-89
2024/01/12 00:19:01;;;;;;;78.68;35.60;;;1.10;99.90;;;1.22;78.69;102262.25;5033307;28;20037;-88
2024/01/12 00:21:32;;;;;;;74.45;33.75;;;1.00;99.90;;;1.22;78.61;102258.75;5033477;28;20041;-88
2024/01/12 00:24:02;;;;;;;74.88;34.90;;;1.10;99.90;;;1.23;78.76;102265.72;5032993;28;20077;-88
2024/01/12 00:26:32;;;;;;;78.53;34.72;;;1.10;99.90;;;1.21;78.94;102262.34;5015948;28;20053;-88
2024/01/12 00:29:03;;;;;;;82.25;35.25;;;1.10;99.90;;;1.21;78.92;102270.22;5015373;28;20046;-88
2024/01/12 00:31:30;;;;;;;96.45;39.60;;;1.10;99.90;;;1.16;78.92;102274.97;5025905;28;20140;-89
2024/01/12 00:34:01;;;;;;;88.47;36.38;;;1.00;99.90;;;1.13;79.47;102285.69;5048474;28;20041;-89
2024/01/12 00:36:28;;;;;;;;;;;1.00;99.90;;;1.14;79.40;102274.22;5033957;28;20054;-89
2024/01/12 00:38:56;;;;;;;83.50;36.33;;;1.10;99.90;;;1.16;79.19;102277.59;5032994;28;19921;-89
2024/01/12 00:41:31;;;;;;;88.05;37.55;;;1.00;99.90;;;1.16;79.46;102277.59;4999509;28;20132;-88
2024/01/12 00:43:59;;;;;;;88.70;36.60;;;1.00;99.90;;;1.17;79.21;102274.00;5031739;28;20042;-88
2024/01/12 00:46:30;;;;;;;92.88;38.47;;;1.00;99.90;;;1.20;79.30;102274.63;5033277;28;20096;-88
2024/01/12 00:48:59;;;;;;;91.10;37.30;;;1.00;99.90;;;1.20;79.18;102269.38;5031859;28;20120;-88
2024/01/12 00:51:30;;;;;;;89.68;38.15;;;1.00;99.90;;;1.21;79.30;102257.91;5032082;28;20048;-88
2024/01/12 00:54:02;;;;;;;92.60;38.38;;;1.10;99.90;;;1.19;79.30;102259.00;5032177;28;20042;-89
2024/01/12 00:56:33;;;;;;;95.22;38.17;;;1.00;99.90;;;1.22;79.13;102253.50;5032620;28;20440;-89
2024/01/12 00:59:01;;;;;;;98.68;40.10;;;1.10;99.90;;;1.20;79.04;102251.00;5035217;28;20112;-89
2024/01/12 01:01:29;;;;;;;103.50;40.83;;;1.10;99.90;;;1.23;78.85;102266.56;5035658;28;20043;-89
2024/01/12 01:04:00;;;;;;;93.07;39.17;;;1.10;99.90;;;1.23;78.90;102257.84;5035105;28;20041;-90
2024/01/12 01:06:28;;;;;;;91.22;38.50;;;1.10;99.90;;;1.25;78.87;102259.41;5034796;28;20045;-89
2024/01/12 01:08:56;;;;;;;98.63;38.33;;;1.10;99.90;;;1.25;78.98;102263.81;5035428;28;20071;-89
2024/01/12 01:11:26;;;;;;;97.40;40.00;;;1.10;99.90;;;1.25;78.81;102269.06;5035729;28;20072;-89
2024/01/12 01:13:56;;;;;;;104.47;39.85;;;1.10;99.90;;;1.25;78.85;102266.44;5035902;28;20468;-90
2024/01/12 01:16:24;;;;;;;89.50;37.35;;;1.10;99.90;;;1.24;79.11;102268.22;5019451;28;20073;-89
2024/01/12 01:19:03;;;;;;;92.15;38.95;;;1.10;99.90;;;1.24;79.15;102270.03;5035506;28;20057;-89
2024/01/12 01:21:33;;;;;;;88.90;38.70;;;1.20;99.90;;;1.25;79.06;102269.06;5035129;28;20153;-89
2024/01/12 01:24:03;;;;;;;88.85;38.53;;;1.10;99.90;;;1.27;78.88;102277.72;5035159;28;20060;-89
2024/01/12 01:26:33;;;;;;;93.47;38.50;;;1.10;99.90;;;1.28;78.70;102279.38;5021640;28;20152;-89
2024/01/12 01:29:05;;;;;;;96.83;40.20;;;1.10;99.90;;;1.31;78.49;102281.78;5028156;28;20037;-90
2024/01/12 01:31:34;;;;;;;94.95;39.38;;;1.10;99.90;;;1.31;78.55;102283.56;5019932;28;20553;-89
2024/01/12 01:34:04;;;;;;;106.35;41.83;;;1.10;99.90;;;1.28;78.56;102277.59;5018300;28;20057;-89
2024/01/12 01:36:31;;;;;;;113.35;42.13;;;1.10;99.90;;;1.26;78.76;102276.00;5018361;28;20056;-89
2024/01/12 01:39:02;;;;;;;101.72;40.22;;;1.10;99.90;;;1.26;78.93;102279.47;4985923;28;20041;-89
2024/01/12 01:41:29;;;;;;;104.82;41.03;;;1.10;99.90;;;1.27;78.93;102282.97;5036666;28;20518;-89
2024/01/12 01:44:00;;;;;;;101.43;39.42;;;1.10;99.90;;;1.28;79.01;102279.38;5040189;28;20044;-89
2024/01/12 01:46:30;;;;;;;100.40;40.28;;;1.10;99.90;;;1.28;78.83;102279.38;5049500;28;20130;-89
2024/01/12 01:49:00;;;;;;;102.28;41.03;;;1.10;99.90;;;1.30;78.95;102285.38;5018039;28;20049;-89
2024/01/12 01:51:28;;;;;;;110.57;41.80;;;1.10;99.90;;;1.30;78.83;102282.72;5018564;28;20045;-89
2024/01/12 01:53:56;;;;;;;104.65;40.10;;;1.10;99.90;;;1.31;78.65;102289.66;4985896;28;20091;-89
2024/01/12 01:56:27;;;;;;;109.57;42.50;;;1.20;99.90;;;1.30;78.60;102277.47;5037358;28;20049;-89
2024/01/12 01:58:55;;;;;;;103.82;40.35;;;1.10;99.90;;;1.29;79.05;102287.16;5054208;28;20068;-89
2024/01/12 02:01:23;;;;;;;110.15;42.17;;;1.20;99.90;;;1.30;79.01;102280.09;5055248;28;20049;-89
2024/01/12 02:03:52;;;;;;;107.28;42.08;;;1.30;99.90;;;1.31;78.89;102283.56;5036456;28;20048;-89
2024/01/12 02:06:22;;;;;;;107.07;41.40;;;1.20;99.90;;;1.31;79.06;102273.88;5051801;28;20038;-89
2024/01/12 02:08:54;;;;;;;111.30;42.25;;;1.20;99.90;;;1.30;79.20;102264.34;5024509;28;20159;-89
2024/01/12 02:11:21;;;;;;;111.25;41.72;;;1.20;99.90;;;1.32;79.12;102266.84;5037444;28;20106;-89
2024/01/12 02:13:52;;;;;;;102.30;41.03;;;1.10;99.90;;;1.33;79.23;102264.13;5033664;28;20049;-89
2024/01/12 02:16:20;;;;;;;101.72;39.63;;;1.20;99.90;;;1.36;78.74;102269.16;5053402;28;20048;-89
2024/01/12 02:18:52;;;;;;;106.65;41.35;;;1.20;99.90;;;1.38;78.73;102275.16;5020457;28;20132;-89
2024/01/12 02:21:27;;;;;;;105.38;40.35;;;1.10;99.90;;;1.37;78.89;102272.66;5013434;28;20061;-89
2024/01/12 02:23:55;;;;;;;110.97;40.30;;;1.20;99.90;;;1.36;79.02;102284.94;5049172;28;20041;-89
2024/01/12 02:26:23;;;;;;;117.53;43.33;;;1.20;99.90;;;1.38;78.75;102285.69;5037245;28;20060;-89
2024/01/12 02:28:51;;;;;;;120.85;42.53;;;1.20;99.90;;;1.36;78.87;102279.66;5017662;28;20041;-89
2024/01/12 02:31:20;;;;;;;130.30;43.08;;;1.20;99.90;;;1.36;79.20;102278.84;5017060;28;20052;-89
2024/01/12 02:34:00;;;;;;;126.80;41.97;;;1.20;99.90;;;1.33;78.93;102279.91;5035540;28;20140;-89
2024/01/12 02:36:32;;;;;;;140.85;43.65;;;1.20;99.90;;;1.35;79.05;102279.78;5002482;28;20049;-89
2024/01/12 02:39:00;;;;;;;133.63;43.45;;;1.20;99.90;;;1.35;79.11;102280.63;5051263;28;20049;-89
2024/01/12 02:41:28;;;;;;;129.32;45.05;;;1.20;99.90;;;1.36;79.38;102277.03;5036098;28;20071;-89
2024/01/12 02:43:55;;;;;;;128.68;42.08;;;1.20;99.90;;;1.36;79.10;102271.78;5019542;28;20512;-89
2024/01/12 02:46:26;;;;;;;140.48;44.47;;;1.20;99.90;;;1.36;79.27;102266.53;5034860;28;20045;-89
2024/01/12 02:48:54;;;;;;;130.48;42.20;;;1.20;99.90;;;1.37;79.18;102262.97;5020835;28;20045;-89
2024/01/12 02:51:23;;;;;;;127.28;42.72;;;1.20;99.90;;;1.37;79.27;102267.41;5034329;28;20038;-89
2024/01/12 02:53:52;;;;;;;137.60;40.92;;;1.20;99.90;;;1.37;79.27;102270.03;5035444;28;20053;-89
2024/01/12 02:56:20;;;;;;;133.27;44.22;;;1.20;99.90;;;1.36;79.44;102263.91;5036290;28;20225;-89
2024/01/12 02:58:51;;;;;;;132.63;44.25;;;1.20;99.90;;;1.37;79.33;102262.13;5021269;28;20406;-89
2024/01/12 03:01:22;;;;;;;129.52;42.05;;;1.20;99.90;;;1.38;79.22;102261.19;5034397;28;20049;-89
2024/01/12 03:03:49;;;;;;;;;;;1.20;99.90;;;1.39;79.07;102257.59;5029337;28;20095;-89
2024/01/12 03:06:16;;;;;;;128.40;40.88;;;1.20;99.90;;;1.39;79.10;102266.31;5032934;28;19952;-89
2024/01/12 03:08:44;;;;;;;124.50;41.25;;;1.30;99.90;;;1.40;79.25;102260.13;5034216;28;20045;-89
2024/01/12 03:11:20;;;;;;;144.95;43.00;;;1.30;99.90;;;1.39;79.25;102255.81;5016525;28;20091;-89
2024/01/12 03:13:52;;;;;;;133.10;42.28;;;1.20;99.90;;;1.39;79.32;102257.59;5025835;28;20128;-89
2024/01/12 03:16:27;;;;;;;131.75;41.53;;;1.20;99.90;;;1.39;79.34;102265.50;5036057;28;20068;-89
2024/01/12 03:18:57;;;;;;;119.28;39.20;;;1.20;99.90;;;1.38;79.49;102266.44;5053612;28;20076;-89
2024/01/12 03:21:27;;;;;;;133.02;42.35;;;1.20;99.90;;;1.40;79.35;102272.41;5053573;28;20579;-89
2024/01/12 03:23:54;;;;;;;126.38;40.92;;;1.30;99.90;;;1.40;79.23;102275.88;5028007;28;20505;-89
2024/01/12 03:26:26;;;;;;;121.10;40.80;;;1.40;99.90;;;1.40;79.32;102273.25;5033828;28;20045;-89
2024/01/12 03:28:53;;;;;;;125.82;41.10;;;1.30;99.90;;;1.42;79.29;102271.38;5022535;28;20041;-89
2024/01/12 03:31:22;;;;;;;121.93;40.00;;;1.30;99.90;;;1.42;79.51;102262.66;5053620;28;20049;-89
2024/01/12 03:33:49;;;;;;;129.75;42.25;;;1.20;99.90;;;1.42;79.46;102257.41;5028462;28;20045;-89
2024/01/12 03:36:17;;;;;;;109.85;38.28;;;1.30;99.90;;;1.42;79.37;102246.88;5022182;28;20049;-89
2024/01/12 03:38:52;;;;;;;121.30;37.85;;;1.20;99.90;;;1.42;79.46;102252.16;5035725;28;20090;-89
2024/01/12 03:41:20;;;;;;;113.88;38.22;;;1.20;99.90;;;1.44;79.67;102248.44;5032357;28;20041;-89
2024/01/12 03:43:51;;;;;;;115.38;39.58;;;1.30;99.90;;;1.45;79.33;102244.84;5040308;28;20094;-89
2024/01/12 03:46:19;;;;;;;122.97;41.28;;;1.30;99.90;;;1.46;79.62;102240.44;5019403;28;20550;-89
2024/01/12 03:48:49;;;;;;;105.07;37.83;;;1.30;99.90;;;1.46;79.50;102240.44;5019134;28;20041;-89
2024/01/12 03:51:18;;;;;;;104.90;36.75;;;1.30;99.90;;;1.45;79.44;102234.34;5035971;28;20045;-89
2024/01/12 03:53:48;;;;;;;109.35;37.83;;;1.30;99.90;;;1.48;79.32;102238.56;5045540;28;20103;-89
2024/01/12 03:56:21;;;;;;;103.80;36.70;;;1.30;99.90;;;1.46;79.31;102232.56;5042028;28;20512;-89
2024/01/12 03:58:53;;;;;;;106.60;37.35;;;1.50;99.90;;;1.48;79.39;102235.94;5019349;28;20041;-89
2024/01/12 04:01:23;;;;;;;107.60;37.40;;;1.30;99.90;;;1.47;79.10;102234.25;5035560;28;20227;-89
2024/01/12 04:03:51;;;;;;;109.75;37.58;;;1.30;99.90;;;1.48;79.38;102235.94;5028727;28;20107;-89
2024/01/12 04:06:20;;;;;;;108.95;37.65;;;1.30;99.90;;;1.47;79.26;102236.88;5053364;28;20098;-89
2024/01/12 04:08:49;;;;;;;109.20;37.03;;;1.30;99.90;;;1.47;79.47;102237.72;5053275;28;20564;-89
2024/01/12 04:11:22;;;;;;;101.43;36.90;;;1.30;99.90;;;1.46;79.26;102240.44;5035374;28;20397;-89
2024/01/12 04:13:54;;;;;;;107.10;38.08;;;1.30;99.90;;;1.47;79.68;102250.88;5029407;28;20107;-89
2024/01/12 04:16:22;;;;;;;113.10;39.35;;;1.30;99.90;;;1.48;79.56;102242.03;5025771;28;20053;-89
2024/01/12 04:18:50;;;;;;;120.18;39.10;;;1.30;99.90;;;1.50;79.65;102249.78;5015648;28;20038;-89
2024/01/12 04:21:17;;;;;;;112.82;38.20;;;1.30;99.90;;;1.48;79.63;102244.66;5015427;28;20049;-88
2024/01/12 04:23:45;;;;;;;113.25;39.33;;;1.30;99.90;;;1.49;79.59;102243.69;5020600;28;20053;-89
2024/01/12 04:26:13;;;;;;;113.38;37.78;;;1.30;99.90;;;1.50;79.65;102245.38;5030580;28;20045;-89
2024/01/12 04:28:40;;;;;;;109.00;38.40;;;1.30;99.90;;;1.51;79.47;102227.81;5035439;28;20191;-89
2024/01/12 04:31:22;;;;;;;107.75;38.05;;;1.30;99.90;;;1.52;79.49;102232.13;5052511;28;20041;-89
2024/01/12 04:33:49;;;;;;;113.88;38.22;;;1.40;99.90;;;1.51;79.49;102233.06;5033476;28;20540;-89
2024/01/12 04:36:20;;;;;;;111.72;37.35;;;1.30;99.90;;;1.51;79.54;102222.56;5037115;28;20099;-89
2024/01/12 04:38:47;;;;;;;109.38;37.33;;;1.30;99.90;;;1.50;79.29;102224.34;5019858;28;20381;-89
2024/01/12 04:41:17;;;;;;;107.95;38.88;;;1.40;99.90;;;1.53;79.28;102223.31;5037742;28;20136;-89
2024/01/12 04:43:44;;;;;;;107.55;38.35;;;1.40;99.90;;;1.54;79.66;102228.44;5036496;28;20041;-89
2024/01/12 04:46:14;;;;;;;116.15;39.83;;;1.40;99.90;;;1.51;79.54;102228.69;5046860;28;20077;-89
2024/01/12 04:48:42;;;;;;;112.72;39.70;;;1.40;99.90;;;1.52;79.67;102230.34;5018478;28;20068;-89
2024/01/12 04:51:17;;;;;;;113.38;39.55;;;1.40;99.90;;;1.53;79.67;102224.13;5035551;28;20049;-89
2024/01/12 04:53:47;;;;;;;130.38;40.72;;;1.40;99.90;;;1.57;79.46;102222.13;5005185;28;20106;-89
2024/01/12 05:08:39;;;;;;;115.95;39.22;;;1.40;99.90;;;1.54;79.70;102207.41;4983054;28;20052;-87
2024/01/12 05:11:09;;;;;;;123.63;39.90;;;1.40;99.90;;;1.55;79.63;102202.97;5021969;28;20476;-84
2024/01/12 05:13:40;;;;;;;117.18;41.03;;;1.40;99.90;;;1.57;79.76;102208.16;5024091;28;20072;-85
2024/01/12 05:16:07;;;;;;;108.80;37.10;;;1.40;99.90;;;1.58;79.51;102217.72;5043246;28;20055;-85
2024/01/12 05:18:38;;;;;;;112.85;37.58;;;1.40;99.90;;;1.57;79.62;102218.66;5044778;28;20033;-85
2024/01/12 05:21:06;;;;;;;102.80;38.45;;;1.40;99.90;;;1.59;79.65;102230.75;5057637;28;20045;-86
2024/01/12 05:23:33;;;;;;;114.65;39.17;;;1.40;99.90;;;1.60;79.31;102224.53;5025480;28;20053;-85
2024/01/12 05:26:02;;;;;;;107.43;39.75;;;1.40;99.90;;;1.61;79.24;102228.00;5039089;28;20037;-84
2024/01/12 05:28:30;;;;;;;115.63;38.17;;;1.40;99.90;;;1.60;79.65;102229.78;5040425;28;20037;-85
2024/01/12 05:30:57;;;;;;;116.88;40.20;;;1.40;99.90;;;1.61;79.44;102234.13;5039242;28;20037;-85
2024/01/12 05:33:24;;;;;;;112.45;38.75;;;1.40;99.90;;;1.61;79.65;102239.38;5039971;28;20045;-84
2024/01/12 05:35:52;;;;;;;99.85;37.15;;;1.40;99.90;;;1.60;79.39;102236.84;5040022;28;20057;-85
2024/01/12 05:38:20;;;;;;;111.28;39.90;;;1.40;99.90;;;1.60;79.65;102237.69;5041685;28;20500;-86
2024/01/12 05:40:47;;;;;;;110.43;39.47;;;1.40;99.90;;;1.62;79.69;102241.06;5038960;28;20115;-83
2024/01/12 05:43:17;;;;;;;120.38;39.10;;;1.40;99.90;;;1.62;79.61;102240.22;5055423;28;20043;-83
2024/01/12 05:45:45;;;;;;;115.10;38.75;;;1.40;99.90;;;1.63;79.67;102245.34;5038500;28;20048;-83
2024/01/12 05:48:13;;;;;;;115.05;40.08;;;1.40;99.90;;;1.64;79.67;102244.41;5021616;28;20063;-85
2024/01/12 05:50:40;;;;;;;122.68;41.28;;;1.50;99.90;;;1.65;79.63;102242.59;5041059;28;20119;-86
2024/01/12 05:53:10;;;;;;;121.95;39.88;;;1.50;99.90;;;1.65;79.45;102243.44;5028432;28;20033;-88
2024/01/12 05:55:38;;;;;;;123.20;40.42;;;1.40;99.90;;;1.65;79.39;102239.97;5048144;28;20055;-90
2024/01/12 05:58:08;;;;;;;128.90;41.70;;;1.40;99.90;;;1.65;79.75;102248.69;5066361;28;20044;-88
2024/01/12 06:00:37;;;;;;;131.70;43.30;;;1.50;99.90;;;1.66;79.91;102246.91;5051821;28;20064;-89
2024/01/12 06:03:05;;;;;;;125.15;42.33;;;1.50;99.90;;;1.64;80.07;102244.41;5061658;28;20051;-87
2024/01/12 06:05:33;;;;;;;122.90;40.88;;;1.40;99.90;;;1.67;79.70;102246.00;5007220;28;20056;-88
2024/01/12 06:08:00;;;;;;;113.40;36.97;;;1.50;99.90;;;1.67;79.46;102244.19;5058204;28;20041;-87
2024/01/12 06:10:28;;;;;;;133.77;42.47;;;1.50;99.90;;;1.69;79.58;102241.44;5028702;28;20107;-87
2024/01/12 06:12:55;;;;;;;129.95;42.63;;;1.50;99.90;;;1.68;79.63;102237.97;5021462;28;20099;-87
2024/01/12 06:15:23;;;;;;;120.97;40.70;;;1.50;99.90;;;1.70;79.60;102241.31;5019780;28;20050;-88
2024/01/12 06:17:51;;;;;;;130.82;39.83;;;1.50;99.90;;;1.70;79.64;102245.75;5019259;28;20082;-87
2024/01/12 06:20:19;;;;;;;114.90;39.58;;;1.50;99.90;;;1.70;79.94;102240.50;5053951;28;20424;-87
2024/01/12 06:22:46;;;;;;;114.75;37.28;;;1.50;99.90;;;1.70;79.58;102232.59;5052123;28;20083;-85
2024/01/12 06:25:14;;;;;;;117.88;39.35;;;1.50;99.90;;;1.69;79.70;102237.03;4976016;28;20079;-87
2024/01/12 06:27:42;;;;;;;121.88;40.53;;;1.50;99.90;;;1.71;79.82;102235.13;5045889;28;20051;-87
2024/01/12 06:30:11;;;;;;;113.40;37.85;;;1.50;99.90;;;1.73;79.79;102242.91;4989837;28;20045;-87
2024/01/12 06:32:39;;;;;;;114.88;36.80;;;1.50;99.90;;;1.74;79.44;102239.31;5005227;28;20048;-87
2024/01/12 06:35:10;;;;;;;105.85;37.33;;;1.50;99.90;;;1.72;79.52;102233.34;5021454;28;20041;-87
2024/01/12 06:37:38;;;;;;;113.18;38.03;;;1.50;99.90;;;1.71;79.84;102243.03;5051176;28;20107;-87
2024/01/12 06:40:08;;;;;;;107.10;36.28;;;1.50;99.90;;;1.71;79.77;102244.81;5041878;28;20052;-87
2024/01/12 06:42:36;;;;;;;100.10;35.45;;;1.50;99.90;;;1.70;79.53;102236.06;5039160;28;20045;-87
2024/01/12 06:45:07;;;;;;;98.88;35.42;;;1.60;99.90;;;1.73;80.04;102237.66;4987615;28;20057;-87
2024/01/12 06:47:34;;;;;;;104.82;36.60;;;1.50;99.90;;;1.75;79.83;102225.22;5031736;28;20428;-87
2024/01/12 06:50:02;;;;;;;87.60;29.92;;;1.50;99.90;;;1.74;79.70;102216.50;5040781;28;20516;-88
2024/01/12 06:52:32;;;;;;;64.00;24.55;;;1.50;99.90;;;1.75;79.51;102219.97;5057859;28;20071;-87
2024/01/12 06:55:00;;;;;;;83.53;28.58;;;1.50;99.90;;;1.76;79.56;102224.28;5035527;28;20428;-87
2024/01/12 06:57:28;;;;;;;86.07;27.52;;;1.60;99.90;;;1.76;79.84;102224.28;5041022;28;20551;-87
2024/01/12 06:59:57;;;;;;;91.72;32.22;;;1.60;99.90;;;1.76;79.80;102222.50;5025503;28;20041;-87
2024/01/12 07:02:24;;;;;;;91.40;30.90;;;1.60;99.90;;;1.77;79.76;102218.06;5038380;28;20138;-87
2024/01/12 07:04:52;;;;;;;88.63;30.42;;;1.60;99.90;;;1.77;79.41;102213.66;5026017;28;20045;-87
2024/01/12 07:07:20;;;;;;;82.20;29.88;;;1.60;99.90;;;1.78;79.58;102210.06;5010657;28;20042;-88
2024/01/12 07:09:49;;;;;;;79.35;29.00;;;1.60;99.90;;;1.78;79.52;102217.94;4957674;28;20034;-87
2024/01/12 07:12:16;;;;;;;77.60;28.88;;;1.60;99.90;;;1.77;79.43;102216.28;5043486;28;20095;-88
2024/01/12 07:14:44;;;;;;;71.10;26.25;;;1.60;99.90;;;1.78;79.56;102217.94;5035346;28;20033;-87
2024/01/12 07:17:12;;;;;;;62.22;24.15;;;1.60;99.90;;;1.77;79.63;102213.66;5018280;28;20092;-87
2024/01/12 07:19:43;;;;;;;57.35;22.02;;;1.60;99.90;;;1.77;79.46;102220.72;5007265;28;20038;-87
2024/01/12 07:22:10;;;;;;;50.42;20.98;;;1.60;99.90;;;1.78;79.85;102225.00;5051885;28;20051;-87
2024/01/12 07:24:38;;;;;;;54.65;20.48;;;1.60;99.90;;;1.79;79.82;102226.69;5022996;28;20045;-87
2024/01/12 07:27:07;;;;;;;46.20;19.08;;;1.60;99.90;;;1.78;79.53;102223.22;5028680;28;20120;-87
2024/01/12 07:29:35;;;;;;;42.47;17.85;;;1.60;99.90;;;1.79;79.58;102224.88;5031375;28;20144;-87
2024/01/12 07:32:03;;;;;;;39.78;16.92;;;1.60;99.90;;;1.77;79.39;102223.34;4986516;28;20049;-88
2024/01/12 07:34:31;;;;;;;40.88;17.35;;;1.60;99.90;;;1.80;79.51;102230.97;5018558;28;20095;-87
2024/01/12 07:36:59;;;;;;;44.65;18.00;;;1.60;99.90;;;1.80;79.42;102231.81;5054199;28;20036;-87
2024/01/12 07:39:26;;;;;;;43.58;16.90;;;1.70;99.90;;;1.79;79.62;102237.22;5036403;28;20095;-87
2024/01/12 07:41:55;;;;;;;39.45;16.38;;;1.60;99.90;;;1.78;79.78;102232.91;5035247;28;20053;-87
2024/01/12 07:44:24;;;;;;;35.05;15.57;;;1.70;99.90;;;1.80;79.61;102244.13;5017528;28;20123;-87
2024/01/12 07:46:51;;;;;;;42.45;18.42;;;1.60;99.90;;;1.81;79.38;102245.84;5019595;28;20041;-87
2024/01/12 07:49:19;;;;;;;38.80;16.60;;;1.60;99.90;;;1.80;79.37;102244.13;5035170;28;20049;-87
2024/01/12 07:51:47;;;;;;;37.22;15.40;;;1.60;99.90;;;1.83;79.37;102245.72;5054414;28;20041;-87
2024/01/12 07:54:15;;;;;;;34.90;15.88;;;1.60;99.90;;;1.83;79.45;102250.97;5033862;28;20053;-87
2024/01/12 07:56:42;;;;;;;40.50;16.27;;;1.60;99.90;;;1.84;79.33;102250.03;5034129;28;20385;-87
2024/01/12 07:59:10;;;;;;;36.03;16.13;;;1.60;99.90;;;1.83;79.46;102249.19;4972333;28;20049;-87
2024/01/12 08:01:40;;;;;;;37.75;16.38;;;1.60;99.90;;;1.83;79.18;102249.19;5034554;28;20052;-87
2024/01/12 08:04:09;;;;;;;39.97;16.98;;;1.60;99.90;;;1.79;79.40;102255.63;5033847;28;20060;-87
2024/01/12 08:06:36;;;;;;;35.97;16.35;;;1.60;99.90;;;1.80;79.53;102254.66;5022887;28;20080;-88
2024/01/12 08:09:04;;;;;;;39.15;17.92;;;1.60;99.90;;;1.79;79.79;102247.72;5045997;28;20523;-87
2024/01/12 08:11:32;;;;;;;47.83;19.85;;;1.60;99.90;;;1.79;79.67;102239.84;5044746;28;20045;-88
2024/01/12 08:13:59;;;;;;;44.20;19.40;;;1.60;99.90;;;1.80;79.82;102238.88;5023596;28;20045;-87
2024/01/12 08:16:27;;;;;;;38.70;18.48;;;1.60;99.90;;;1.83;79.97;102245.72;5036975;28;20116;-87
2024/01/12 08:18:57;;;;;;;47.45;20.60;;;1.60;99.90;;;1.83;79.42;102248.34;5036110;28;20053;-88
2024/01/12 08:21:24;;;;;;;39.53;19.17;;;1.60;99.90;;;1.83;79.63;102251.81;5033233;28;20132;-87
2024/01/12 08:23:52;;;;;;;44.55;21.70;;;1.60;99.90;;;1.84;79.55;102250.03;5027782;28;20145;-87
2024/01/12 08:26:21;;;;;;;45.78;21.75;;;1.60;99.90;;;1.84;79.52;102245.59;5033993;28;20053;-87
2024/01/12 08:28:54;;;;;;;51.95;22.85;;;1.80;99.90;;;1.84;79.83;102250.88;5035929;28;20045;-87
2024/01/12 08:31:22;;;;;;;47.30;21.55;;;1.60;99.90;;;1.84;79.76;102247.41;5040134;28;20033;-87
2024/01/12 08:33:50;;;;;;;49.60;23.10;;;1.60;99.90;;;1.85;80.05;102255.16;5032995;28;20053;-87
2024/01/12 08:36:20;;;;;;;55.00;25.75;;;1.60;99.90;;;1.86;79.82;102254.25;5037369;28;20041;-87
2024/01/12 08:38:48;;;;;;;58.63;27.45;;;1.60;99.90;;;1.84;79.88;102257.91;5008053;28;20505;-87
2024/01/12 08:41:15;;;;;;;62.20;29.05;;;1.60;99.90;;;1.83;80.08;102262.34;5032044;28;20041;-87
2024/01/12 08:43:43;;;;;;;62.60;28.92;;;1.70;99.90;;;1.80;80.22;102271.28;5022867;28;20103;-87
2024/01/12 08:46:11;;;;;;;64.15;28.52;;;1.60;99.90;;;1.82;79.96;102259.84;5056459;28;20037;-87
2024/01/12 08:48:38;;;;;;;65.78;28.40;;;1.70;99.90;;;1.83;80.28;102256.25;5020868;28;20186;-87
2024/01/12 08:51:06;;;;;;;65.60;30.13;;;1.60;99.90;;;1.83;79.96;102253.63;5020939;28;20046;-87
2024/01/12 08:53:35;;;;;;;60.47;28.25;;;1.60;99.90;;;1.83;80.02;102257.09;5023193;28;20473;-87
2024/01/12 08:56:02;;;;;;;64.32;28.67;;;1.60;99.90;;;1.84;80.08;102248.22;5040586;28;20120;-88
2024/01/12 08:58:30;;;;;;;58.88;27.02;;;1.70;99.90;;;1.83;80.29;102256.25;5037261;28;20077;-87
2024/01/12 09:00:57;;;;;;;60.13;27.42;;;1.70;99.90;;;1.83;80.14;102254.44;5032357;28;20104;-87
2024/01/12 09:03:26;;;;;;;56.65;26.23;;;1.60;99.90;;;1.85;80.09;102255.16;5012886;28;20076;-88
2024/01/12 09:05:54;;;;;;;51.58;22.85;;;1.70;99.90;;;1.84;79.99;102252.66;5046002;28;20042;-87
2024/01/12 09:08:21;;;;;;;47.50;23.15;;;1.60;99.90;;;1.85;80.04;102259.59;5006329;28;20045;-88
2024/01/12 09:10:51;;;;;;;53.42;23.55;;;1.60;99.90;;;1.83;80.21;102248.34;5024066;28;20033;-87
2024/01/12 09:13:19;;;;;;;55.07;23.93;;;1.60;99.90;;;1.87;79.94;102257.72;5057708;28;20044;-87
2024/01/12 09:15:47;;;;;;;49.28;23.48;;;1.70;99.90;;;1.91;80.23;102251.28;5057696;28;20287;-87
2024/01/12 09:18:15;;;;;;;47.70;22.05;;;1.70;99.90;;;1.90;79.77;102242.53;5038528;28;20493;-87
2024/01/12 09:20:43;;;;;;;45.30;21.73;;;1.70;99.90;;;1.87;79.85;102240.13;5024546;28;20083;-87
2024/01/12 09:23:10;;;;;;;46.85;21.08;;;1.70;99.90;;;1.84;79.90;102240.34;5057860;28;20520;-87
2024/01/12 09:25:37;;;;;;;54.00;20.55;;;1.70;99.90;;;1.82;79.99;102244.88;5042353;28;20042;-87
2024/01/12 09:28:07;;;;;;;48.15;20.42;;;1.70;99.90;;;1.84;80.29;102236.88;5034507;28;20104;-87
2024/01/12 09:30:36;;;;;;;46.38;19.75;;;1.70;99.90;;;1.85;80.22;102231.50;4980922;28;20447;-87
2024/01/12 09:33:03;;;;;;;56.28;20.83;;;1.70;99.90;;;1.87;80.59;102239.28;5027922;28;20474;-87
2024/01/12 09:35:31;;;;;;;43.58;18.95;;;1.70;99.90;;;1.88;80.49;102252.31;5039340;28;20055;-87
2024/01/12 09:37:59;;;;;;;50.42;18.77;;;1.70;99.90;;;1.89;80.01;102254.00;5054217;28;20053;-87
2024/01/12 09:40:26;;;;;;;41.92;17.58;;;1.70;99.90;;;1.91;80.49;102260.00;5039459;28;20140;-87
2024/01/12 09:42:58;;;;;;;44.38;18.08;;;1.70;99.90;;;1.93;80.09;102265.16;5054205;28;20050;-89
2024/01/12 09:45:28;;;;;;;43.53;17.92;;;1.70;99.90;;;1.93;80.34;102262.53;5032067;28;20049;-87
2024/01/12 09:47:55;;;;;;;42.47;16.50;;;1.70;99.90;;;1.90;80.18;102271.47;5058633;28;20060;-87
2024/01/12 09:50:24;;;;;;;42.13;17.10;;;1.70;99.90;;;1.92;80.41;102277.47;5036650;28;20046;-87
2024/01/12 09:52:51;;;;;;;35.38;16.10;;;1.80;99.90;;;1.92;80.38;102272.22;5022076;28;20044;-87
2024/01/12 09:55:19;;;;;;;46.83;17.02;;;1.80;99.90;;;1.91;80.14;102272.31;5023020;28;20049;-87
2024/01/12 09:57:47;;;;;;;40.15;17.23;;;1.70;99.90;;;1.90;80.35;102260.94;5036438;28;20049;-87
2024/01/12 10:00:16;;;;;;;38.83;16.85;;;1.80;99.90;;;1.92;79.92;102268.75;5056474;28;20044;-87
2024/01/12 10:02:47;;;;;;;52.60;19.83;;;1.70;99.90;;;1.93;80.21;102270.41;5016636;28;20429;-87
2024/01/12 10:05:14;;;;;;;49.22;18.88;;;1.70;99.90;;;1.94;79.83;102270.28;5015839;28;20045;-87
2024/01/12 10:07:42;;;;;;;43.55;18.05;;;1.80;99.90;;;1.97;79.91;102258.72;5025543;28;20091;-87
2024/01/12 10:10:10;;;;;;;44.75;18.55;;;1.80;99.90;;;1.96;79.77;102260.53;5037159;28;20048;-87
2024/01/12 10:12:38;;;;;;;42.53;17.85;;;1.90;99.90;;;1.98;79.77;102257.75;5043051;28;20041;-87
2024/01/12 10:15:08;;;;;;;44.08;17.48;;;1.80;99.90;;;1.99;79.79;102255.00;5055761;28;20123;-87
2024/01/12 10:17:35;;;;;;;49.20;19.17;;;1.80;99.90;;;1.98;79.89;102250.72;5023782;28;20095;-87
2024/01/12 10:20:09;;;;;;;48.17;17.67;;;1.80;99.90;;;1.91;79.82;102249.50;5026957;28;20133;-87
2024/01/12 10:22:39;;;;;;;47.15;20.08;;;1.80;99.90;;;1.92;79.95;102245.06;5019590;28;20141;-87
2024/01/12 10:25:08;;;;;;;48.95;18.23;;;1.80;99.90;;;1.95;79.86;102242.19;5035065;28;20095;-87
2024/01/12 10:27:36;;;;;;;43.58;17.90;;;1.80;99.90;;;1.96;79.70;102252.63;5055708;28;20222;-87
2024/01/12 10:30:04;;;;;;;41.10;17.20;;;1.80;99.90;;;1.98;79.78;102247.25;5032675;28;20108;-87